createdAt,value
2018-10-09T00:00:20.630Z,27.97
2018-10-09T00:00:58.439Z,27.96
2018-10-09T00:01:36.483Z,27.95
2018-10-09T00:02:14.418Z,27.93
2018-10-09T00:02:52.320Z,27.90
2018-10-09T00:03:30.125Z,27.86
2018-10-09T00:04:08.077Z,27.85
2018-10-09T00:04:45.950Z,27.83
2018-10-09T00:05:23.787Z,27.83
2018-10-09T00:06:01.705Z,27.83
2018-10-09T00:06:39.632Z,27.84
2018-10-09T00:07:17.626Z,27.84
2018-10-09T00:07:55.573Z,27.84
2018-10-09T00:08:33.434Z,27.85
2018-10-09T00:09:12.772Z,27.85
2018-10-09T00:09:51.899Z,27.86
2018-10-09T00:10:29.784Z,27.84
2018-10-09T00:11:07.691Z,27.84
2018-10-09T00:11:45.636Z,27.83
2018-10-09T00:12:23.652Z,27.83
2018-10-09T00:13:01.525Z,27.81
2018-10-09T00:13:39.373Z,27.81
2018-10-09T00:14:18.442Z,27.81
2018-10-09T00:14:56.279Z,27.80
2018-10-09T00:15:34.980Z,27.80
2018-10-09T00:16:12.888Z,27.80
2018-10-09T00:16:50.775Z,27.81
2018-10-09T00:17:28.577Z,27.81
2018-10-09T00:18:06.631Z,27.83
2018-10-09T00:18:44.508Z,27.84
2018-10-09T00:19:22.349Z,27.87
2018-10-09T00:20:00.316Z,27.88
2018-10-09T00:20:38.219Z,27.91
2018-10-09T00:21:16.242Z,27.96
2018-10-09T00:21:54.124Z,28.01
2018-10-09T00:22:31.933Z,28.07
2018-10-09T00:23:10.453Z,28.12
2018-10-09T00:23:48.361Z,28.18
2018-10-09T00:24:26.196Z,28.22
2018-10-09T00:25:04.048Z,28.26
2018-10-09T00:25:42.444Z,28.28
2018-10-09T00:26:20.327Z,28.28
2018-10-09T00:26:58.932Z,28.30
2018-10-09T00:27:36.793Z,28.32
2018-10-09T00:28:14.645Z,28.35
2018-10-09T00:28:52.659Z,28.38
2018-10-09T00:29:30.466Z,28.41
2018-10-09T00:30:08.389Z,28.42
2018-10-09T00:30:46.480Z,28.42
2018-10-09T00:31:24.454Z,28.42
2018-10-09T00:32:02.464Z,28.44
2018-10-09T00:32:40.409Z,28.47
2018-10-09T00:33:18.292Z,28.52
2018-10-09T00:33:56.269Z,28.53
2018-10-09T00:34:34.319Z,28.50
2018-10-09T00:35:12.133Z,28.49
2018-10-09T00:35:49.959Z,28.49
2018-10-09T00:36:27.916Z,28.51
2018-10-09T00:37:05.897Z,28.54
2018-10-09T00:37:43.880Z,28.54
2018-10-09T00:38:21.818Z,28.57
2018-10-09T00:38:59.742Z,28.54
2018-10-09T00:39:37.855Z,28.58
2018-10-09T00:43:17.029Z,28.82
2018-10-09T00:43:54.922Z,28.88
2018-10-09T00:44:32.865Z,28.92
2018-10-09T00:45:10.983Z,28.95
2018-10-09T00:45:51.091Z,28.97
2018-10-09T00:46:28.997Z,29.02
2018-10-09T00:47:06.878Z,29.06
2018-10-09T00:47:44.730Z,29.10
2018-10-09T00:48:22.573Z,29.13
2018-10-09T00:49:00.536Z,29.22
2018-10-09T00:49:38.399Z,29.26
2018-10-09T00:50:16.749Z,29.29
2018-10-09T00:50:54.847Z,29.34
2018-10-09T00:51:32.689Z,29.38
2018-10-09T00:52:11.053Z,29.41
2018-10-09T00:52:48.942Z,29.46
2018-10-09T00:53:27.089Z,29.51
2018-10-09T00:54:05.022Z,29.55
2018-10-09T00:54:42.957Z,29.60
2018-10-09T00:55:21.145Z,29.64
2018-10-09T00:55:59.213Z,29.66
2018-10-09T00:56:37.186Z,29.74
2018-10-09T00:57:15.169Z,29.77
2018-10-09T00:57:53.093Z,29.81
2018-10-09T00:58:30.909Z,29.88
2018-10-09T00:59:08.962Z,29.94
2018-10-09T00:59:46.844Z,29.99
2018-10-09T01:00:24.671Z,30.02
2018-10-09T01:01:02.680Z,30.07
2018-10-09T01:01:40.586Z,30.08
2018-10-09T01:02:18.594Z,30.12
2018-10-09T01:02:56.521Z,30.20
2018-10-09T01:03:34.520Z,30.22
2018-10-09T01:04:12.490Z,30.27
2018-10-09T01:04:50.422Z,30.29
2018-10-09T01:05:29.529Z,30.30
2018-10-09T01:06:07.421Z,30.32
2018-10-09T01:06:45.308Z,30.36
2018-10-09T01:07:23.515Z,30.37
2018-10-09T01:08:01.461Z,30.41
2018-10-09T01:08:39.623Z,30.47
2018-10-09T01:09:17.482Z,30.50
2018-10-09T01:09:55.748Z,30.55
2018-10-09T01:10:33.643Z,30.58
2018-10-09T01:11:11.759Z,30.63
2018-10-09T01:11:50.519Z,30.67
2018-10-09T01:12:28.651Z,30.69
2018-10-09T01:13:06.510Z,30.71
2018-10-09T01:13:44.378Z,30.70
2018-10-09T01:14:22.301Z,30.73
2018-10-09T01:15:00.999Z,30.74
2018-10-09T01:15:38.877Z,30.76
2018-10-09T01:16:17.457Z,30.78
2018-10-09T01:16:55.347Z,30.82
2018-10-09T01:17:33.361Z,30.87
2018-10-09T01:18:11.204Z,30.87
2018-10-09T01:18:49.105Z,30.95
2018-10-09T01:19:27.073Z,30.98
2018-10-09T01:20:04.919Z,31.03
2018-10-09T01:20:42.822Z,30.99
2018-10-09T01:21:20.773Z,30.86
2018-10-09T01:21:58.865Z,30.72
2018-10-09T01:22:36.808Z,30.65
2018-10-09T01:23:14.660Z,30.62
2018-10-09T01:23:52.494Z,30.61
2018-10-09T01:24:30.421Z,30.63
2018-10-09T01:25:08.350Z,30.68
2018-10-09T01:25:46.217Z,30.72
2018-10-09T01:26:24.045Z,30.74
2018-10-09T01:27:01.921Z,30.83
2018-10-09T01:27:39.912Z,30.89
2018-10-09T01:28:17.715Z,30.97
2018-10-09T01:28:55.603Z,30.95
2018-10-09T01:29:33.449Z,30.99
2018-10-09T01:30:12.208Z,31.04
2018-10-09T01:30:50.062Z,31.10
2018-10-09T01:31:27.988Z,31.13
2018-10-09T01:32:06.769Z,31.22
2018-10-09T01:32:44.637Z,31.21
2018-10-09T01:33:22.539Z,31.14
2018-10-09T01:34:00.453Z,31.09
2018-10-09T01:34:38.412Z,31.03
2018-10-09T01:35:16.311Z,30.95
2018-10-09T01:35:54.676Z,30.91
2018-10-09T01:36:32.511Z,30.85
2018-10-09T01:37:10.485Z,30.81
2018-10-09T01:37:48.420Z,30.85
2018-10-09T01:38:26.468Z,30.91
2018-10-09T01:39:04.391Z,30.97
2018-10-09T01:39:42.263Z,31.01
2018-10-09T01:40:20.092Z,31.06
2018-10-09T01:40:57.911Z,31.14
2018-10-09T01:41:35.792Z,31.21
2018-10-09T01:42:13.672Z,31.24
2018-10-09T01:42:53.114Z,31.29
2018-10-09T01:43:31.801Z,31.32
2018-10-09T01:44:09.802Z,31.36
2018-10-09T01:44:49.452Z,31.41
2018-10-09T01:45:28.048Z,31.49
2018-10-09T01:46:05.916Z,31.53
2018-10-09T01:46:44.023Z,31.58
2018-10-09T01:47:21.897Z,31.58
2018-10-09T01:47:59.925Z,31.61
2018-10-09T01:48:38.567Z,31.64
2018-10-09T01:49:16.428Z,31.68
2018-10-09T01:49:54.408Z,31.73
2018-10-09T01:50:32.400Z,31.74
2018-10-09T01:51:10.391Z,31.74
2018-10-09T01:51:48.233Z,31.79
2018-10-09T01:52:28.098Z,31.83
2018-10-09T01:53:06.094Z,31.89
2018-10-09T01:53:43.922Z,31.88
2018-10-09T01:54:22.048Z,31.73
2018-10-09T01:54:59.854Z,31.64
2018-10-09T01:55:37.899Z,31.66
2018-10-09T01:56:16.999Z,31.69
2018-10-09T01:56:55.052Z,31.79
2018-10-09T01:57:32.973Z,31.86
2018-10-09T01:58:10.881Z,31.90
2018-10-09T01:58:48.716Z,31.95
2018-10-09T01:59:26.561Z,31.99
2018-10-09T02:00:04.448Z,32.02
2018-10-09T02:00:42.237Z,32.07
2018-10-09T02:01:20.222Z,32.13
2018-10-09T02:01:58.057Z,32.18
2018-10-09T02:02:35.958Z,32.24
2018-10-09T02:03:13.855Z,32.30
2018-10-09T02:03:51.752Z,32.35
2018-10-09T02:04:29.684Z,32.38
2018-10-09T02:05:07.859Z,32.43
2018-10-09T02:05:45.783Z,32.46
2018-10-09T02:06:23.745Z,32.50
2018-10-09T02:07:01.585Z,32.50
2018-10-09T02:07:39.558Z,32.48
2018-10-09T02:08:17.348Z,32.52
2018-10-09T02:08:55.254Z,32.50
2018-10-09T02:09:34.009Z,32.50
2018-10-09T02:10:11.920Z,32.52
2018-10-09T02:10:49.874Z,32.55
2018-10-09T02:11:27.738Z,32.59
2018-10-09T02:12:05.706Z,32.62
2018-10-09T02:12:43.530Z,32.67
2018-10-09T02:13:21.330Z,32.70
2018-10-09T02:13:59.264Z,32.73
2018-10-09T02:14:37.075Z,32.78
2018-10-09T02:15:16.033Z,32.81
2018-10-09T02:15:53.929Z,32.85
2018-10-09T02:16:31.752Z,32.92
2018-10-09T02:17:09.765Z,32.95
2018-10-09T02:17:47.653Z,32.97
2018-10-09T02:18:25.483Z,32.99
2018-10-09T02:19:03.485Z,33.02
2018-10-09T02:19:42.461Z,33.05
2018-10-09T02:20:20.421Z,33.10
2018-10-09T02:20:58.417Z,33.12
2018-10-09T02:21:36.446Z,33.12
2018-10-09T02:22:14.386Z,33.12
2018-10-09T02:22:52.359Z,33.08
2018-10-09T02:23:30.286Z,33.09
2018-10-09T02:24:08.251Z,33.10
2018-10-09T02:24:46.127Z,33.11
2018-10-09T02:25:24.012Z,33.10
2018-10-09T02:26:01.894Z,33.12
2018-10-09T02:26:39.791Z,33.14
2018-10-09T02:27:17.835Z,33.17
2018-10-09T02:27:55.732Z,33.18
2018-10-09T02:28:33.651Z,33.21
2018-10-09T02:29:11.772Z,33.25
2018-10-09T02:29:49.774Z,33.29
2018-10-09T02:30:27.759Z,33.33
2018-10-09T02:31:06.372Z,33.37
2018-10-09T02:31:45.241Z,33.39
2018-10-09T02:32:23.033Z,33.43
2018-10-09T02:33:01.164Z,33.47
2018-10-09T02:33:39.063Z,33.48
2018-10-09T02:34:17.023Z,33.53
2018-10-09T02:34:54.871Z,33.54
2018-10-09T02:35:32.937Z,33.54
2018-10-09T02:36:10.945Z,33.55
2018-10-09T02:36:48.895Z,33.59
2018-10-09T02:37:26.823Z,33.59
2018-10-09T02:38:04.743Z,33.61
2018-10-09T02:38:42.691Z,33.62
2018-10-09T02:39:20.577Z,33.62
2018-10-09T02:39:58.354Z,33.65
2018-10-09T02:40:36.609Z,33.70
2018-10-09T02:41:14.515Z,33.72
2018-10-09T02:41:52.412Z,33.75
2018-10-09T02:42:31.520Z,33.70
2018-10-09T02:43:09.437Z,33.63
2018-10-09T02:43:47.458Z,33.63
2018-10-09T02:44:25.370Z,33.54
2018-10-09T02:45:03.340Z,33.42
2018-10-09T02:45:46.854Z,33.35
2018-10-09T02:46:24.771Z,33.41
2018-10-09T02:47:03.866Z,33.49
2018-10-09T02:47:41.649Z,33.52
2018-10-09T02:48:19.517Z,33.60
2018-10-09T02:48:58.557Z,33.67
2018-10-09T02:49:36.314Z,33.69
2018-10-09T02:50:14.198Z,33.73
2018-10-09T02:50:52.135Z,33.74
2018-10-09T02:51:29.999Z,33.80
2018-10-09T02:52:07.889Z,33.66
2018-10-09T02:52:46.713Z,33.67
2018-10-09T02:53:24.661Z,33.73
2018-10-09T02:54:02.494Z,33.78
2018-10-09T02:54:41.276Z,33.84
2018-10-09T02:55:19.198Z,33.84
2018-10-09T02:55:57.006Z,33.88
2018-10-09T02:56:34.869Z,33.91
2018-10-09T02:57:12.733Z,33.95
2018-10-09T02:57:50.722Z,33.97
2018-10-09T02:58:28.587Z,33.96
2018-10-09T02:59:06.559Z,33.99
2018-10-09T02:59:44.483Z,33.97
2018-10-09T03:00:23.632Z,33.99
2018-10-09T03:01:01.577Z,33.95
2018-10-09T03:01:39.539Z,33.99
2018-10-09T03:02:17.461Z,34.02
2018-10-09T03:02:55.312Z,34.05
2018-10-09T03:03:33.176Z,34.10
2018-10-09T03:04:11.191Z,34.15
2018-10-09T03:04:49.402Z,34.19
2018-10-09T03:05:27.271Z,34.24
2018-10-09T03:06:05.736Z,34.21
2018-10-09T03:06:43.620Z,34.23
2018-10-09T03:07:25.600Z,34.26
2018-10-09T03:08:03.427Z,34.26
2018-10-09T03:08:41.333Z,34.29
2018-10-09T03:09:19.204Z,34.33
2018-10-09T03:09:57.133Z,34.34
2018-10-09T03:10:35.075Z,34.36
2018-10-09T03:11:13.020Z,34.35
2018-10-09T03:11:50.924Z,34.33
2018-10-09T03:12:28.823Z,34.41
2018-10-09T03:13:06.730Z,34.42
2018-10-09T03:13:44.507Z,34.45
2018-10-09T03:14:22.516Z,34.48
2018-10-09T03:15:00.368Z,34.49
2018-10-09T03:15:38.231Z,34.49
2018-10-09T03:16:17.029Z,34.56
2018-10-09T03:16:55.131Z,34.61
2018-10-09T03:17:33.064Z,34.59
2018-10-09T03:18:10.983Z,34.64
2018-10-09T03:18:48.789Z,34.67
2018-10-09T03:19:26.971Z,34.65
2018-10-09T03:20:04.893Z,34.71
2018-10-09T03:20:42.813Z,34.73
2018-10-09T03:21:20.692Z,34.74
2018-10-09T03:21:58.565Z,34.77
2018-10-09T03:22:36.439Z,34.79
2018-10-09T03:23:14.259Z,34.77
2018-10-09T03:23:52.312Z,34.77
2018-10-09T03:24:30.222Z,34.78
2018-10-09T03:25:08.084Z,34.82
2018-10-09T03:25:46.926Z,34.88
2018-10-09T03:26:24.783Z,34.92
2018-10-09T03:27:02.587Z,34.94
2018-10-09T03:27:41.613Z,34.92
2018-10-09T03:28:19.541Z,34.85
2018-10-09T03:28:57.528Z,34.88
2018-10-09T03:29:36.318Z,34.90
2018-10-09T03:30:14.849Z,34.91
2018-10-09T03:30:52.790Z,34.92
2018-10-09T03:31:30.746Z,34.89
2018-10-09T03:32:08.610Z,34.88
2018-10-09T03:32:46.454Z,34.88
2018-10-09T03:33:25.178Z,34.83
2018-10-09T03:34:03.958Z,34.65
2018-10-09T03:34:44.763Z,34.50
2018-10-09T03:35:22.534Z,34.46
2018-10-09T03:36:00.350Z,34.35
2018-10-09T03:36:38.167Z,34.26
2018-10-09T03:37:16.000Z,34.21
2018-10-09T03:37:55.316Z,34.13
2018-10-09T03:38:33.191Z,34.09
2018-10-09T03:39:12.139Z,34.04
2018-10-09T03:39:50.089Z,33.99
2018-10-09T03:40:28.154Z,33.93
2018-10-09T03:41:06.046Z,33.87
2018-10-09T03:41:43.925Z,33.82
2018-10-09T03:42:21.891Z,33.75
2018-10-09T03:42:59.812Z,33.70
2018-10-09T03:43:37.713Z,33.73
2018-10-09T03:44:16.748Z,33.90
2018-10-09T03:44:54.611Z,34.04
2018-10-09T03:45:33.348Z,34.19
2018-10-09T03:46:11.307Z,34.30
2018-10-09T03:46:49.193Z,34.34
2018-10-09T03:47:27.092Z,34.43
2018-10-09T03:48:05.019Z,34.49
2018-10-09T03:48:42.906Z,34.54
2018-10-09T03:49:20.771Z,34.62
2018-10-09T03:49:58.626Z,34.67
2018-10-09T03:50:37.136Z,34.70
2018-10-09T03:51:15.231Z,34.76
2018-10-09T03:51:53.031Z,34.75
2018-10-09T03:52:30.820Z,34.80
2018-10-09T03:53:08.693Z,34.83
2018-10-09T03:53:46.488Z,34.84
2018-10-09T03:54:24.363Z,34.87
2018-10-09T03:55:02.529Z,34.80
2018-10-09T03:55:41.267Z,34.82
2018-10-09T03:56:19.065Z,34.82
2018-10-09T03:56:56.936Z,34.88
2018-10-09T03:57:34.726Z,34.93
2018-10-09T03:58:12.602Z,34.96
2018-10-09T03:58:53.363Z,35.01
2018-10-09T03:59:31.280Z,35.06
2018-10-09T04:00:09.136Z,35.07
2018-10-09T04:00:47.145Z,35.13
2018-10-09T04:01:24.983Z,35.16
2018-10-09T04:02:02.859Z,35.20
2018-10-09T04:02:40.631Z,35.19
2018-10-09T04:03:18.423Z,35.17
2018-10-09T04:03:56.367Z,35.19
2018-10-09T04:04:35.271Z,35.18
2018-10-09T04:05:13.060Z,35.24
2018-10-09T04:05:50.923Z,35.27
2018-10-09T04:06:28.923Z,35.31
2018-10-09T04:07:06.827Z,35.34
2018-10-09T04:07:44.628Z,35.38
2018-10-09T04:08:22.514Z,35.44
2018-10-09T04:09:00.452Z,35.48
2018-10-09T04:09:38.533Z,35.51
2018-10-09T04:10:16.595Z,35.53
2018-10-09T04:10:54.527Z,35.52
2018-10-09T04:11:32.360Z,35.54
2018-10-09T04:12:10.252Z,35.49
2018-10-09T04:12:48.110Z,35.43
2018-10-09T04:13:26.056Z,35.34
2018-10-09T04:14:03.959Z,35.32
2018-10-09T04:14:41.840Z,35.34
2018-10-09T04:15:19.788Z,35.34
2018-10-09T04:15:57.704Z,35.36
2018-10-09T04:16:35.573Z,35.33
2018-10-09T04:17:13.359Z,35.32
2018-10-09T04:17:51.308Z,35.29
2018-10-09T04:18:29.152Z,35.32
2018-10-09T04:19:07.027Z,35.31
2018-10-09T04:19:44.936Z,35.33
2018-10-09T04:20:22.777Z,35.33
2018-10-09T04:21:00.784Z,35.35
2018-10-09T04:21:38.986Z,35.34
2018-10-09T04:22:20.911Z,35.33
2018-10-09T04:22:58.739Z,35.30
2018-10-09T04:23:36.616Z,35.31
2018-10-09T04:24:14.543Z,35.31
2018-10-09T04:24:52.780Z,35.33
2018-10-09T04:25:30.657Z,35.38
2018-10-09T04:26:08.562Z,35.39
2018-10-09T04:26:46.506Z,35.42
2018-10-09T04:27:24.700Z,35.47
2018-10-09T04:28:02.545Z,35.47
2018-10-09T04:28:40.957Z,35.47
2018-10-09T04:29:18.898Z,35.51
2018-10-09T04:29:56.733Z,35.53
2018-10-09T04:30:34.665Z,35.52
2018-10-09T04:31:12.744Z,35.54
2018-10-09T04:31:56.742Z,35.54
2018-10-09T04:32:34.751Z,35.49
2018-10-09T04:33:12.596Z,35.41
2018-10-09T04:33:50.625Z,35.31
2018-10-09T04:34:28.501Z,35.26
2018-10-09T04:35:06.340Z,35.22
2018-10-09T04:35:44.257Z,35.18
2018-10-09T04:36:22.186Z,35.10
2018-10-09T04:37:01.135Z,35.08
2018-10-09T04:37:39.126Z,35.04
2018-10-09T04:38:17.077Z,35.03
2018-10-09T04:38:55.060Z,34.95
2018-10-09T04:39:33.078Z,34.92
2018-10-09T04:40:11.086Z,34.85
2018-10-09T04:40:48.928Z,34.84
2018-10-09T04:41:26.725Z,34.83
2018-10-09T04:42:04.521Z,34.81
2018-10-09T04:42:42.354Z,34.82
2018-10-09T04:43:20.286Z,34.82
2018-10-09T04:43:58.098Z,34.82
2018-10-09T04:44:36.423Z,34.79
2018-10-09T04:45:14.247Z,34.82
2018-10-09T04:45:52.547Z,34.79
2018-10-09T04:46:30.451Z,34.80
2018-10-09T04:47:08.427Z,34.83
2018-10-09T04:47:46.258Z,34.83
2018-10-09T04:48:24.253Z,34.83
2018-10-09T04:49:02.272Z,34.81
2018-10-09T04:49:40.203Z,34.82
2018-10-09T04:50:18.142Z,34.82
2018-10-09T04:50:56.099Z,34.81
2018-10-09T04:51:34.580Z,34.81
2018-10-09T04:52:12.467Z,34.82
2018-10-09T04:52:50.341Z,34.84
2018-10-09T04:53:28.263Z,34.79
2018-10-09T04:54:06.163Z,34.81
2018-10-09T04:54:44.120Z,34.84
2018-10-09T04:55:21.969Z,34.89
2018-10-09T04:55:59.905Z,34.89
2018-10-09T04:56:37.807Z,34.90
2018-10-09T04:57:16.020Z,34.88
2018-10-09T04:57:55.002Z,34.89
2018-10-09T04:58:32.913Z,34.90
2018-10-09T04:59:10.801Z,34.90
2018-10-09T04:59:48.546Z,34.94
2018-10-09T05:00:26.512Z,34.93
2018-10-09T05:01:04.279Z,34.97
2018-10-09T05:01:42.366Z,34.94
2018-10-09T05:02:20.476Z,34.91
2018-10-09T05:02:58.578Z,34.85
2018-10-09T05:03:36.419Z,34.79
2018-10-09T05:04:14.369Z,34.75
2018-10-09T05:04:52.250Z,34.72
2018-10-09T05:05:31.055Z,34.68
2018-10-09T05:06:09.492Z,34.64
2018-10-09T05:06:47.452Z,34.62
2018-10-09T05:07:25.255Z,34.60
2018-10-09T05:08:03.072Z,34.56
2018-10-09T05:08:40.957Z,34.48
2018-10-09T05:09:20.473Z,34.44
2018-10-09T05:09:59.590Z,34.39
2018-10-09T05:10:37.586Z,34.34
2018-10-09T05:11:15.459Z,34.30
2018-10-09T05:11:53.348Z,34.27
2018-10-09T05:12:31.153Z,34.23
2018-10-09T05:13:09.171Z,34.21
2018-10-09T05:13:47.030Z,34.17
2018-10-09T05:14:25.105Z,34.14
2018-10-09T05:15:02.929Z,34.09
2018-10-09T05:15:40.802Z,34.06
2018-10-09T05:16:18.729Z,34.03
2018-10-09T05:16:57.516Z,34.00
2018-10-09T05:17:35.446Z,33.97
2018-10-09T05:18:13.327Z,33.94
2018-10-09T05:18:51.220Z,33.92
2018-10-09T05:19:29.078Z,33.88
2018-10-09T05:20:07.408Z,33.85
2018-10-09T05:20:45.407Z,33.83
2018-10-09T05:21:23.311Z,33.77
2018-10-09T05:22:01.202Z,33.75
2018-10-09T05:22:39.086Z,33.71
2018-10-09T05:23:16.910Z,33.69
2018-10-09T05:23:55.801Z,33.67
2018-10-09T05:24:35.031Z,33.67
2018-10-09T05:25:13.121Z,33.63
2018-10-09T05:25:50.977Z,33.61
2018-10-09T05:26:28.932Z,33.59
2018-10-09T05:27:06.858Z,33.54
2018-10-09T05:27:44.695Z,33.51
2018-10-09T05:28:22.513Z,33.47
2018-10-09T05:29:00.373Z,33.44
2018-10-09T05:29:39.214Z,33.42
2018-10-09T05:30:17.003Z,33.39
2018-10-09T05:30:55.128Z,33.36
2018-10-09T05:31:32.963Z,33.34
2018-10-09T05:32:10.989Z,33.30
2018-10-09T05:32:48.767Z,33.20
2018-10-09T05:33:26.614Z,33.19
2018-10-09T05:34:04.537Z,33.17
2018-10-09T05:34:42.444Z,33.14
2018-10-09T05:35:20.319Z,33.11
2018-10-09T05:35:59.236Z,33.06
2018-10-09T05:36:37.048Z,33.05
2018-10-09T05:37:14.899Z,33.02
2018-10-09T05:37:53.126Z,32.96
2018-10-09T05:38:31.006Z,32.91
2018-10-09T05:39:09.968Z,32.93
2018-10-09T05:39:47.851Z,32.87
2018-10-09T05:40:25.780Z,32.85
2018-10-09T05:41:03.670Z,32.82
2018-10-09T05:41:41.627Z,32.80
2018-10-09T05:42:19.577Z,32.78
2018-10-09T05:42:57.492Z,32.73
2018-10-09T05:43:35.403Z,32.71
2018-10-09T05:44:13.340Z,32.67
2018-10-09T05:44:51.338Z,32.64
2018-10-09T05:45:29.713Z,32.59
2018-10-09T05:46:07.560Z,32.53
2018-10-09T05:46:45.447Z,32.52
2018-10-09T05:47:23.343Z,32.49
2018-10-09T05:48:01.172Z,32.47
2018-10-09T05:48:38.944Z,32.44
2018-10-09T05:49:16.841Z,32.43
2018-10-09T05:49:54.975Z,32.42
2018-10-09T05:50:32.997Z,32.40
2018-10-09T05:51:11.364Z,32.41
2018-10-09T05:51:49.228Z,32.41
2018-10-09T05:52:27.183Z,32.40
2018-10-09T05:53:05.059Z,32.43
2018-10-09T05:53:43.633Z,32.45
2018-10-09T05:54:21.569Z,32.45
2018-10-09T05:54:59.492Z,32.49
2018-10-09T05:55:38.076Z,32.50
2018-10-09T05:56:16.316Z,32.64
2018-10-09T05:56:54.358Z,32.79
2018-10-09T05:57:32.299Z,32.82
2018-10-09T05:58:10.468Z,32.81
2018-10-09T05:58:48.438Z,32.80
2018-10-09T05:59:27.207Z,32.80
2018-10-09T06:00:05.102Z,32.81
2018-10-09T06:00:43.099Z,32.90
2018-10-09T06:01:22.023Z,33.03
2018-10-09T06:01:59.965Z,33.08
2018-10-09T06:02:37.902Z,33.05
2018-10-09T06:03:15.813Z,33.00
2018-10-09T06:03:53.653Z,32.96
2018-10-09T06:04:31.570Z,32.90
2018-10-09T06:05:09.456Z,32.88
2018-10-09T06:05:48.559Z,32.86
2018-10-09T06:07:09.307Z,32.82
2018-10-09T06:07:47.296Z,32.76
2018-10-09T06:08:25.259Z,32.75
2018-10-09T06:09:03.247Z,32.73
2018-10-09T06:09:41.660Z,32.70
2018-10-09T06:10:19.444Z,32.69
2018-10-09T06:10:57.325Z,32.69
2018-10-09T06:11:35.190Z,32.73
2018-10-09T06:12:13.125Z,32.73
2018-10-09T06:12:50.990Z,32.70
2018-10-09T06:13:28.792Z,32.71
2018-10-09T06:14:06.899Z,32.71
2018-10-09T06:14:44.904Z,32.73
2018-10-09T06:15:22.899Z,32.72
2018-10-09T06:16:00.765Z,32.74
2018-10-09T06:16:38.727Z,32.73
2018-10-09T06:17:16.620Z,32.75
2018-10-09T06:17:54.429Z,32.74
2018-10-09T06:18:32.198Z,32.74
2018-10-09T06:19:10.097Z,32.76
2018-10-09T06:19:47.954Z,32.76
2018-10-09T06:20:26.707Z,32.70
2018-10-09T06:21:04.652Z,32.68
2018-10-09T06:21:42.636Z,32.67
2018-10-09T06:22:20.562Z,32.68
2018-10-09T06:22:58.491Z,32.66
2018-10-09T06:23:37.036Z,32.66
2018-10-09T06:24:15.009Z,32.66
2018-10-09T06:24:54.065Z,32.66
2018-10-09T06:25:31.967Z,32.66
2018-10-09T06:26:09.767Z,32.66
2018-10-09T06:26:47.733Z,32.66
2018-10-09T06:27:25.601Z,32.67
2018-10-09T06:28:03.428Z,32.66
2018-10-09T06:28:41.263Z,32.66
2018-10-09T06:29:19.145Z,32.65
2018-10-09T06:29:57.079Z,32.64
2018-10-09T06:30:36.170Z,32.61
2018-10-09T06:31:14.201Z,32.61
2018-10-09T06:31:52.051Z,32.62
2018-10-09T06:32:31.167Z,32.62
2018-10-09T06:33:09.202Z,32.60
2018-10-09T06:33:52.418Z,32.59
2018-10-09T06:34:30.247Z,32.57
2018-10-09T06:35:08.217Z,32.55
2018-10-09T06:35:46.077Z,32.53
2018-10-09T06:36:24.010Z,32.51
2018-10-09T06:37:01.962Z,32.49
2018-10-09T06:37:40.670Z,32.46
2018-10-09T06:38:18.846Z,32.45
2018-10-09T06:38:56.741Z,32.44
2018-10-09T06:39:34.601Z,32.44
2018-10-09T06:40:12.463Z,32.41
2018-10-09T06:40:50.299Z,32.41
2018-10-09T06:41:28.400Z,32.41
2018-10-09T06:42:06.395Z,32.41
2018-10-09T06:42:44.270Z,32.44
2018-10-09T06:43:22.391Z,32.44
2018-10-09T06:44:00.335Z,32.45
2018-10-09T06:44:38.249Z,32.44
2018-10-09T06:45:16.103Z,32.43
2018-10-09T06:45:53.904Z,32.45
2018-10-09T06:46:31.945Z,32.46
2018-10-09T06:47:10.071Z,32.50
2018-10-09T06:47:47.913Z,32.56
2018-10-09T06:48:25.920Z,32.66
2018-10-09T06:49:03.764Z,32.72
2018-10-09T06:49:41.739Z,32.82
2018-10-09T06:50:19.549Z,32.86
2018-10-09T06:50:57.478Z,32.91
2018-10-09T06:51:35.349Z,32.99
2018-10-09T06:52:14.810Z,33.06
2018-10-09T06:52:52.736Z,33.15
2018-10-09T06:53:30.622Z,33.25
2018-10-09T06:54:08.578Z,33.34
2018-10-09T06:54:46.615Z,33.37
2018-10-09T06:55:24.608Z,33.43
2018-10-09T06:56:02.604Z,33.53
2018-10-09T06:56:40.396Z,33.55
2018-10-09T06:57:18.840Z,33.56
2018-10-09T06:57:56.899Z,33.55
2018-10-09T06:58:35.587Z,33.50
2018-10-09T06:59:13.430Z,33.51
2018-10-09T06:59:51.280Z,33.50
2018-10-09T07:00:29.383Z,33.52
2018-10-09T07:01:07.248Z,33.57
2018-10-09T07:01:45.176Z,33.61
2018-10-09T07:02:27.450Z,33.68
2018-10-09T07:03:06.330Z,33.74
2018-10-09T07:03:44.281Z,33.80
2018-10-09T07:04:22.135Z,33.86
2018-10-09T07:04:59.968Z,33.96
2018-10-09T07:05:37.836Z,34.02
2018-10-09T07:06:16.445Z,34.10
2018-10-09T07:06:54.364Z,34.17
2018-10-09T07:07:32.490Z,34.23
2018-10-09T07:08:10.570Z,34.30
2018-10-09T07:08:48.476Z,34.36
2018-10-09T07:09:26.376Z,34.43
2018-10-09T07:10:04.278Z,34.46
2018-10-09T07:10:41.994Z,34.49
2018-10-09T07:11:20.057Z,34.49
2018-10-09T07:11:58.235Z,34.57
2018-10-09T07:12:36.018Z,34.59
2018-10-09T07:13:13.962Z,34.49
2018-10-09T07:13:54.105Z,34.39
2018-10-09T07:14:31.928Z,34.30
2018-10-09T07:15:09.869Z,34.24
2018-10-09T07:15:48.142Z,34.19
2018-10-09T07:16:26.764Z,34.14
2018-10-09T07:17:04.604Z,34.10
2018-10-09T07:17:42.616Z,34.17
2018-10-09T07:18:20.484Z,34.17
2018-10-09T07:18:58.280Z,34.16
2018-10-09T07:19:36.221Z,34.19
2018-10-09T07:20:15.123Z,34.25
2018-10-09T07:21:48.734Z,34.29
2018-10-09T07:22:26.700Z,34.33
2018-10-09T07:23:04.647Z,34.39
2018-10-09T07:23:42.489Z,34.44
2018-10-09T07:24:21.511Z,34.45
2018-10-09T07:24:59.376Z,34.50
2018-10-09T07:25:37.315Z,34.49
2018-10-09T07:26:15.178Z,34.51
2018-10-09T07:26:53.091Z,34.53
2018-10-09T07:27:30.926Z,34.48
2018-10-09T07:28:08.841Z,34.52
2018-10-09T07:28:46.808Z,34.49
2018-10-09T07:29:24.622Z,34.53
2018-10-09T07:30:02.619Z,34.50
2018-10-09T07:30:40.461Z,34.53
2018-10-09T07:31:18.384Z,34.56
2018-10-09T07:31:56.204Z,34.58
2018-10-09T07:32:34.024Z,34.57
2018-10-09T07:33:11.840Z,34.60
2018-10-09T07:33:49.717Z,34.63
2018-10-09T07:34:27.544Z,34.64
2018-10-09T07:35:05.444Z,34.66
2018-10-09T07:35:43.439Z,34.64
2018-10-09T07:36:21.504Z,34.65
2018-10-09T07:36:59.427Z,34.68
2018-10-09T07:37:37.290Z,34.72
2018-10-09T07:38:15.114Z,34.70
2018-10-09T07:38:52.926Z,34.72
2018-10-09T07:39:30.825Z,34.73
2018-10-09T07:40:08.776Z,34.74
2018-10-09T07:40:46.754Z,34.75
2018-10-09T07:41:24.581Z,34.77
2018-10-09T07:42:02.389Z,34.78
2018-10-09T07:42:40.253Z,34.76
2018-10-09T07:43:18.152Z,34.79
2018-10-09T07:43:56.169Z,34.76
2018-10-09T07:44:34.187Z,34.76
2018-10-09T07:45:12.046Z,34.66
2018-10-09T07:45:49.976Z,34.61
2018-10-09T07:46:28.236Z,34.46
2018-10-09T07:47:07.393Z,34.42
2018-10-09T07:47:46.247Z,34.42
2018-10-09T07:48:24.269Z,34.45
2018-10-09T07:49:02.334Z,34.43
2018-10-09T07:49:40.356Z,34.36
2018-10-09T07:50:18.269Z,34.33
2018-10-09T07:50:56.408Z,34.29
2018-10-09T07:51:34.307Z,34.25
2018-10-09T07:52:12.391Z,34.23
2018-10-09T07:52:50.488Z,34.20
2018-10-09T07:53:28.488Z,34.18
2018-10-09T07:54:06.270Z,34.15
2018-10-09T07:54:44.046Z,34.10
2018-10-09T07:55:21.848Z,34.03
2018-10-09T07:55:59.837Z,34.02
2018-10-09T07:56:37.672Z,33.98
2018-10-09T07:57:15.640Z,33.94
2018-10-09T07:57:53.617Z,33.91
2018-10-09T07:58:31.500Z,33.95
2018-10-09T07:59:09.336Z,34.00
2018-10-09T07:59:47.144Z,34.03
2018-10-09T08:00:25.531Z,34.08
2018-10-09T08:01:03.401Z,34.06
2018-10-09T08:01:41.157Z,34.00
2018-10-09T08:02:18.968Z,33.96
2018-10-09T08:02:56.837Z,33.91
2018-10-09T08:03:34.708Z,33.88
2018-10-09T08:04:13.693Z,33.82
2018-10-09T08:04:51.566Z,33.82
2018-10-09T08:05:29.656Z,33.77
2018-10-09T08:06:07.841Z,33.75
2018-10-09T08:06:46.261Z,33.75
2018-10-09T08:07:24.245Z,33.73
2018-10-09T08:08:02.106Z,33.70
2018-10-09T08:08:40.047Z,33.68
2018-10-09T08:09:17.950Z,33.66
2018-10-09T08:09:55.939Z,33.66
2018-10-09T08:10:34.033Z,33.66
2018-10-09T08:11:12.059Z,33.64
2018-10-09T08:11:50.007Z,33.64
2018-10-09T08:12:29.131Z,33.63
2018-10-09T08:13:06.958Z,33.62
2018-10-09T08:13:44.798Z,33.61
2018-10-09T08:14:22.608Z,33.58
2018-10-09T08:15:00.477Z,33.59